Time;durP1;ratioP1;P1;durP2;ratioP2;P2;SDS_P1;SDS_P2;PMS_P1;PMS_P2;Temp;Humidity;BMP_temperature;BMP_pressure;BME280_temperature;BME280_humidity;BME280_pressure;Samples;Min_cycle;Max_cycle;Signal;HPM_P1;HPM_P2
2023/01/19 00:02:12;;;;;;;22.02;11.65;;;;;;;-2.25;100.00;100290.47;5074848;28;20098;-79
2023/01/19 00:04:38;;;;;;;16.83;11.10;;;;;;;-2.17;100.00;100294.34;5075142;28;20033;-79
2023/01/19 00:07:06;;;;;;;16.98;8.77;;;;;;;-2.21;100.00;100288.47;5074924;28;20032;-78
2023/01/19 00:09:32;;;;;;;17.55;9.38;;;;;;;-2.20;100.00;100279.59;5041872;28;20442;-78
2023/01/19 00:11:59;;;;;;;24.50;10.80;;;;;;;-2.46;100.00;100234.00;5041887;28;20036;-78
2023/01/19 00:14:24;;;;;;;25.08;10.05;;;;;;;-2.11;100.00;100280.78;5057846;28;20039;-78
2023/01/19 00:16:50;;;;;;;13.38;9.32;;;;;;;-2.12;100.00;100271.16;5041603;28;20029;-79
2023/01/19 00:19:15;;;;;;;16.67;8.60;;;;;;;-2.12;100.00;100265.91;5074397;28;20042;-80
2023/01/19 00:21:41;;;;;;;19.17;9.02;;;;;;;-2.08;100.00;100264.75;5041165;28;20037;-77
2023/01/19 00:24:07;;;;;;;9.15;5.10;;;;;;;-2.10;100.00;100258.75;5041554;28;20032;-78
2023/01/19 00:26:33;;;;;;;10.60;7.72;;;;;;;-2.02;100.00;100266.94;5041598;28;20390;-78
2023/01/19 00:28:58;;;;;;;17.42;9.32;;;;;;;-2.06;100.00;100258.44;5041489;28;20043;-78
2023/01/19 00:31:24;;;;;;;16.98;10.40;;;;;;;-2.11;100.00;100251.81;5057791;28;20075;-78
2023/01/19 00:33:53;;;;;;;17.40;8.95;;;;;;;-2.11;100.00;100254.44;5041283;28;20044;-78
2023/01/19 00:36:19;;;;;;;14.15;7.75;;;;;;;-2.12;100.00;100255.38;5057834;28;20056;-77
2023/01/19 00:38:45;;;;;;;14.40;8.80;;;;;;;-2.15;100.00;100245.88;5074665;28;20044;-78
2023/01/19 00:41:11;;;;;;;18.02;10.07;;;;;;;-2.15;100.00;100239.78;5041247;28;20036;-77
2023/01/19 00:43:36;;;;;;;15.70;8.55;;;;;;;-2.10;100.00;100238.50;5057597;28;20028;-77
2023/01/19 00:46:02;;;;;;;16.35;8.38;;;;;;;-2.09;100.00;100237.56;5040880;28;20368;-79
2023/01/19 00:48:30;;;;;;;27.10;11.15;;;;;;;-2.11;100.00;100230.72;5041136;28;20486;-80
2023/01/19 00:50:55;;;;;;;22.13;10.43;;;;;;;-2.15;100.00;100229.25;5041144;28;20028;-77
2023/01/19 00:53:21;;;;;;;30.67;13.88;;;;;;;-2.11;100.00;100222.81;5040950;28;20028;-78
2023/01/19 00:55:47;;;;;;;37.08;16.65;;;;;;;-2.06;100.00;100224.19;5041106;28;20035;-77
2023/01/19 00:58:12;;;;;;;34.33;15.48;;;;;;;-1.99;100.00;100212.25;5040694;28;20474;-77
2023/01/19 01:00:38;;;;;;;26.02;11.65;;;;;;;-1.90;100.00;100218.66;5041012;28;20461;-78
2023/01/19 01:03:04;;;;;;;14.70;8.52;;;;;;;-1.87;100.00;100210.53;5040979;28;20033;-80
2023/01/19 01:05:29;;;;;;;20.25;9.10;;;;;;;-1.87;100.00;100209.69;5040592;28;20032;-78
2023/01/19 01:07:55;;;;;;;66.63;27.08;;;;;;;-1.82;100.00;100203.16;5040661;28;20533;-78
2023/01/19 01:10:23;;;;;;;91.20;35.92;;;;;;;-1.79;100.00;100195.03;5057150;28;20036;-76
2023/01/19 01:12:49;;;;;;;62.63;26.30;;;;;;;-1.65;100.00;100206.34;5057155;28;20032;-78
2023/01/19 01:15:16;;;;;;;30.08;15.70;;;;;;;-1.62;100.00;100206.97;5040637;28;20036;-77
2023/01/19 01:17:46;;;;;;;22.50;11.13;;;;;;;-1.56;100.00;100206.53;5057036;28;20075;-77
2023/01/19 01:20:21;;;;;;;29.85;10.82;;;;;;;-1.54;100.00;100203.78;5040749;28;20028;-77
2023/01/19 01:22:49;;;;;;;18.42;7.45;;;;;;;-1.52;100.00;100196.59;5073447;28;20029;-76
2023/01/19 01:25:18;;;;;;;16.63;8.30;;;;;;;-1.55;100.00;100186.28;5040271;28;20115;-77
2023/01/19 01:27:44;;;;;;;12.82;7.60;;;;;;;-1.60;100.00;100181.34;5073173;28;20031;-78
2023/01/19 01:30:12;;;;;;;12.75;5.10;;;;;;;-1.66;100.00;100180.97;5040391;28;20032;-77
2023/01/19 01:32:38;;;;;;;23.90;8.40;;;;;;;-1.70;100.00;100177.69;5073732;28;20063;-77
2023/01/19 01:35:04;;;;;;;14.90;7.53;;;;;;;-1.74;100.00;100165.69;5056174;28;20055;-77
2023/01/19 01:37:30;;;;;;;18.35;8.57;;;;;;;-1.73;100.00;100161.25;5040264;28;20390;-76
2023/01/19 01:39:56;;;;;;;18.67;8.73;;;;;;;-1.71;100.00;100159.38;5040188;28;20127;-77
2023/01/19 01:42:26;;;;;;;15.38;9.13;;;;;;;-1.67;100.00;100158.16;5072802;28;20441;-77
2023/01/19 01:44:57;;;;;;;18.50;8.43;;;;;;;-1.64;100.00;100171.13;5073105;28;20105;-77
2023/01/19 01:47:25;;;;;;;18.38;8.02;;;;;;;-1.63;100.00;100180.72;5073217;28;20032;-77
2023/01/19 01:50:19;;;;;;;21.73;8.50;;;;;;;-1.69;100.00;100163.56;5056477;28;20024;-78
2023/01/19 01:52:54;;;;;;;14.50;7.95;;;;;;;-1.69;100.00;100170.63;5035311;28;20082;-77
2023/01/19 01:55:21;;;;;;;11.48;6.40;;;;;;;-1.72;100.00;100174.34;5056774;28;20086;-77
2023/01/19 01:57:51;;;;;;;15.88;7.55;;;;;;;-1.69;100.00;100173.25;5056415;28;20028;-78
2023/01/19 02:00:17;;;;;;;15.88;8.63;;;;;;;-1.68;100.00;100169.69;5039804;28;20036;-78
2023/01/19 02:02:55;;;;;;;17.40;5.82;;;;;;;-1.68;100.00;100159.13;5056273;28;20037;-77
2023/01/19 02:05:30;;;;;;;22.90;8.55;;;;;;;-1.65;100.00;100162.38;5041232;28;20033;-76
2023/01/19 02:13:36;;;;;;;12.30;5.93;;;;;;;-1.48;100.00;100158.53;5058779;28;20035;-76
2023/01/19 02:16:06;;;;;;;14.88;6.38;;;;;;;-1.50;100.00;100143.78;5039478;28;20068;-77
2023/01/19 02:18:32;;;;;;;17.48;5.75;;;;;;;-1.42;100.00;100151.94;5039168;28;20024;-77
2023/01/19 02:21:23;;;;;;;17.23;7.50;;;;;;;-1.35;100.00;100151.38;5055535;28;20394;-77
2023/01/19 02:23:53;;;;;;;13.73;6.05;;;;;;;-1.37;100.00;100134.00;5056059;28;20121;-76
2023/01/19 02:26:22;;;;;;;19.27;8.73;;;;;;;-1.20;100.00;100148.53;5056153;28;20569;-77
2023/01/19 02:28:57;;;;;;;13.85;8.00;;;;;;;-1.19;100.00;100143.16;5055823;28;20150;-76
2023/01/19 02:31:23;;;;;;;14.05;6.60;;;;;;;-1.19;100.00;100147.56;5072404;28;20040;-77
2023/01/19 02:33:49;;;;;;;7.78;5.53;;;;;;;-1.18;100.00;100146.63;5039425;28;20039;-77
2023/01/19 02:36:16;;;;;;;15.18;7.00;;;;;;;-1.21;100.00;100133.69;5072236;28;20393;-76
2023/01/19 02:38:44;;;;;;;19.90;7.15;;;;;;;-1.15;100.00;100128.75;5072324;28;20121;-78
2023/01/19 02:41:12;;;;;;;12.80;6.53;;;;;;;-1.17;100.00;100108.72;5039161;28;20043;-76
2023/01/19 02:43:38;;;;;;;15.25;8.00;;;;;;;-1.08;100.00;100123.88;5038728;28;20375;-78
2023/01/19 02:46:04;;;;;;;13.18;6.55;;;;;;;-1.03;100.00;100128.78;5072025;28;20034;-76
2023/01/19 02:48:30;;;;;;;13.73;8.20;;;;;;;-1.01;100.00;100126.88;5039014;28;20119;-76
2023/01/19 02:51:02;;;;;;;10.32;6.07;;;;;;;-1.02;100.00;100117.28;5039052;28;20119;-77
2023/01/19 02:53:31;;;;;;;17.63;7.27;;;;;;;-1.06;100.00;100114.03;5072246;28;20134;-76
2023/01/19 02:56:22;;;;;;;11.75;6.05;;;;;;;-1.00;100.00;100123.28;5055729;28;20536;-77
2023/01/19 02:58:59;;;;;;;14.80;7.35;;;;;;;-1.02;100.00;100122.56;5027030;28;20043;-77
2023/01/19 03:01:59;;;;;;;17.77;6.72;;;;;;;-1.01;100.00;100113.69;5055716;28;20562;-76
2023/01/19 03:04:43;;;;;;;11.48;6.10;;;;;;;-1.03;100.00;100110.31;5055351;28;20029;-77
2023/01/19 03:07:11;;;;;;;12.90;6.65;;;;;;;-1.05;100.00;100118.38;5055433;28;20032;-76
2023/01/19 03:09:51;;;;;;;14.88;7.15;;;;;;;-1.07;100.00;100100.97;5038594;28;20424;-77
2023/01/19 03:12:20;;;;;;;15.10;7.25;;;;;;;-1.04;100.00;100116.56;5055255;28;20115;-77
2023/01/19 03:14:46;;;;;;;13.27;6.43;;;;;;;-1.04;100.00;100112.13;5055092;28;20036;-77
2023/01/19 03:17:15;;;;;;;12.10;6.88;;;;;;;-1.03;100.00;100108.53;5071685;28;20048;-78
2023/01/19 03:19:41;;;;;;;12.00;7.65;;;;;;;-1.08;100.00;100086.09;5038489;28;20063;-77
2023/01/19 03:22:13;;;;;;;17.40;6.80;;;;;;;-1.03;100.00;100092.72;5071809;28;20035;-78
2023/01/19 03:24:44;;;;;;;19.58;7.30;;;;;;;-0.95;100.00;100100.88;5055036;28;20060;-78
2023/01/19 03:27:26;;;;;;;12.98;6.25;;;;;;;-0.94;100.00;100102.53;5038833;28;20036;-79
2023/01/19 03:29:57;;;;;;;11.38;6.82;;;;;;;-0.96;100.00;100099.16;5055454;28;20033;-77
2023/01/19 03:32:29;;;;;;;10.35;5.80;;;;;;;-0.94;100.00;100096.44;5055300;28;20040;-78
2023/01/19 03:34:59;;;;;;;12.75;5.18;;;;;;;-0.96;100.00;100093.06;5038697;28;20047;-78
2023/01/19 03:37:25;;;;;;;11.68;5.50;;;;;;;-0.90;100.00;100096.09;5055144;28;20039;-79
2023/01/19 03:39:51;;;;;;;13.40;6.45;;;;;;;-0.83;100.00;100095.59;5071856;28;20032;-78
2023/01/19 03:42:17;;;;;;;19.05;7.85;;;;;;;-0.84;100.00;100084.22;5038610;28;20116;-79
2023/01/19 03:44:44;;;;;;;16.30;7.82;;;;;;;-0.84;100.00;100084.22;5038312;28;20074;-78
2023/01/19 03:47:11;;;;;;;13.93;6.80;;;;;;;-1.03;100.00;100050.50;5054619;28;20112;-77
2023/01/19 03:49:38;;;;;;;19.83;7.28;;;;;;;-0.80;100.00;100092.72;5071335;28;20067;-78
2023/01/19 03:52:04;;;;;;;18.38;7.28;;;;;;;-0.79;100.00;100089.13;5038528;28;20235;-78
2023/01/19 03:54:30;;;;;;;9.30;4.53;;;;;;;-0.78;100.00;100085.53;5054911;28;20050;-78
2023/01/19 03:56:55;;;;;;;14.20;6.35;;;;;;;-0.78;100.00;100093.44;5056219;28;20032;-79
2023/01/19 03:59:21;;;;;;;15.68;7.47;;;;;;;-0.77;100.00;100092.47;5042168;28;20142;-77
2023/01/19 04:01:47;;;;;;;13.07;6.70;;;;;;;-0.79;100.00;100089.13;5058222;28;20120;-79
2023/01/19 04:04:14;;;;;;;10.65;6.25;;;;;;;-0.79;100.00;100089.13;5041862;28;20039;-78
2023/01/19 04:06:40;;;;;;;14.18;6.45;;;;;;;-0.76;100.00;100094.16;5075008;28;20087;-79
2023/01/19 04:09:07;;;;;;;17.02;6.32;;;;;;;-0.75;100.00;100096.66;5075087;28;20037;-78
2023/01/19 04:11:32;;;;;;;18.00;6.45;;;;;;;-0.74;100.00;100102.78;5074641;28;20039;-79
2023/01/19 04:13:58;;;;;;;17.05;6.72;;;;;;;-0.88;100.00;100080.09;5041899;28;20024;-80
2023/01/19 04:16:24;;;;;;;9.35;5.55;;;;;;;-0.80;100.00;100090.06;5041723;28;20055;-79
2023/01/19 04:18:51;;;;;;;12.02;7.35;;;;;;;-0.79;100.00;100097.88;5041686;28;20035;-78
2023/01/19 04:21:17;;;;;;;18.92;7.68;;;;;;;-0.82;100.00;100090.22;5041793;28;20194;-79
2023/01/19 04:23:45;;;;;;;18.73;7.13;;;;;;;-0.88;100.00;100086.22;5058253;28;20477;-79
2023/01/19 04:26:11;;;;;;;11.93;5.55;;;;;;;-0.85;100.00;100092.22;5057719;28;20024;-80
2023/01/19 04:28:37;;;;;;;11.75;6.05;;;;;;;-0.84;100.00;100092.13;5041451;28;20036;-77
2023/01/19 04:31:06;;;;;;;12.05;6.68;;;;;;;-0.77;100.00;100097.75;5041536;28;20097;-78
2023/01/19 04:33:32;;;;;;;18.10;6.57;;;;;;;-0.73;100.00;100094.75;5041411;28;20032;-79
2023/01/19 04:35:58;;;;;;;14.50;6.00;;;;;;;-0.71;100.00;100097.28;5074470;28;20048;-77
2023/01/19 04:38:25;;;;;;;15.30;6.93;;;;;;;-0.74;100.00;100089.59;5057970;28;20052;-78
2023/01/19 04:40:51;;;;;;;9.50;5.65;;;;;;;-0.77;100.00;100092.47;5041205;28;20106;-78
2023/01/19 04:43:18;;;;;;;17.90;6.88;;;;;;;-0.75;100.00;100099.31;5074218;28;20416;-78
2023/01/19 04:45:45;;;;;;;12.45;6.28;;;;;;;-0.80;100.00;100082.16;5057491;28;20351;-80
2023/01/19 04:48:11;;;;;;;11.93;5.53;;;;;;;-0.78;100.00;100096.09;5041167;28;20047;-78
2023/01/19 04:50:37;;;;;;;15.73;6.95;;;;;;;-0.82;100.00;100079.66;5040816;28;20048;-79
2023/01/19 04:53:03;;;;;;;14.13;6.00;;;;;;;-0.77;100.00;100088.03;5040805;28;20170;-79
2023/01/19 04:55:29;;;;;;;15.27;6.72;;;;;;;-0.77;100.00;100097.75;5057269;28;20043;-77
2023/01/19 04:57:55;;;;;;;14.82;6.13;;;;;;;-0.80;100.00;100095.34;5057363;28;20040;-77
2023/01/19 05:00:21;;;;;;;17.27;6.97;;;;;;;-0.84;100.00;100096.56;5040912;28;20030;-78
2023/01/19 05:02:46;;;;;;;12.30;5.88;;;;;;;-0.94;100.00;100086.72;5040944;28;20040;-76
2023/01/19 05:05:13;;;;;;;15.05;5.78;;;;;;;-0.98;100.00;100095.84;5040639;28;20029;-76
2023/01/19 05:07:38;;;;;;;16.67;6.85;;;;;;;-1.01;100.00;100092.56;5073475;28;20111;-77
2023/01/19 05:10:05;;;;;;;10.10;5.40;;;;;;;-1.04;100.00;100091.00;5040669;28;20127;-78
2023/01/19 05:12:31;;;;;;;10.98;5.70;;;;;;;-1.11;100.00;100079.28;5056984;28;20513;-77
2023/01/19 05:14:57;;;;;;;9.77;5.22;;;;;;;-1.22;100.00;100076.59;5057219;28;20043;-77
2023/01/19 05:17:23;;;;;;;13.07;5.65;;;;;;;-1.35;100.00;100082.81;5040684;28;20036;-77
2023/01/19 05:19:48;;;;;;;12.07;6.57;;;;;;;-1.45;100.00;100081.81;5040464;28;20119;-77
2023/01/19 05:22:15;;;;;;;14.45;7.22;;;;;;;-1.63;100.00;100077.94;5040522;28;20063;-77
2023/01/19 05:24:40;;;;;;;13.65;6.32;;;;;;;-1.65;100.00;100087.75;5040358;28;20028;-77
2023/01/19 05:27:06;;;;;;;9.45;5.45;;;;;;;-1.76;100.00;100083.25;5073155;28;20032;-77
2023/01/19 05:29:33;;;;;;;12.73;7.40;;;;;;;-1.90;100.00;100080.81;5040308;28;20032;-77
2023/01/19 05:31:59;;;;;;;13.68;6.53;;;;;;;-2.00;100.00;100088.53;5040407;28;20094;-77
2023/01/19 05:34:24;;;;;;;7.70;5.10;;;;;;;-2.10;100.00;100088.38;5040228;28;20033;-78
2023/01/19 05:36:50;;;;;;;12.77;5.55;;;;;;;-2.14;100.00;100086.06;5040233;28;20044;-79
2023/01/19 05:39:16;;;;;;;8.93;5.75;;;;;;;-2.06;100.00;100081.94;5040187;28;20111;-78
2023/01/19 05:41:44;;;;;;;8.95;5.22;;;;;;;-2.16;100.00;100070.38;5040042;28;20037;-77
2023/01/19 05:44:10;;;;;;;12.57;5.90;;;;;;;-2.15;100.00;100087.00;5073049;28;20032;-78
2023/01/19 05:46:36;;;;;;;10.13;5.95;;;;;;;-2.30;100.00;100081.06;5072775;28;20060;-77
2023/01/19 05:49:03;;;;;;;16.73;6.20;;;;;;;-2.54;100.00;100086.28;5072637;28;20437;-78
2023/01/19 05:51:34;;;;;;;11.68;5.65;;;;;;;-2.66;100.00;100099.34;5056677;28;20497;-78
2023/01/19 05:54:00;;;;;;;14.43;5.13;;;;;;;-2.88;100.00;100099.19;5056945;28;20055;-78
2023/01/19 05:56:26;;;;;;;5.88;3.47;;;;;;;-2.95;100.00;100104.00;5039762;28;20028;-77
2023/01/19 05:58:52;;;;;;;3.63;1.83;;;;;;;-2.98;100.00;100103.38;5039825;28;20032;-79
2023/01/19 06:01:17;;;;;;;6.32;4.40;;;;;;;-2.94;100.00;100110.97;5039829;28;20040;-78
2023/01/19 06:03:43;;;;;;;8.98;6.32;;;;;;;-2.99;100.00;100112.22;5039532;28;20040;-78
2023/01/19 06:06:09;;;;;;;14.68;5.82;;;;;;;-2.98;100.00;100125.28;5039492;28;20028;-77
2023/01/19 06:08:34;;;;;;;6.80;4.35;;;;;;;-3.06;100.00;100114.44;5056198;28;20085;-78
2023/01/19 06:11:00;;;;;;;8.50;5.03;;;;;;;-3.02;100.00;100120.31;5039722;28;20048;-77
2023/01/19 06:13:26;;;;;;;9.23;4.63;;;;;;;-2.99;100.00;100118.34;5039221;28;20497;-80
2023/01/19 06:15:56;;;;;;;8.18;5.55;;;;;;;-2.99;100.00;100107.81;5039285;28;20090;-78
2023/01/19 06:18:22;;;;;;;8.32;4.72;;;;;;;-2.97;100.00;100120.84;5072262;28;20025;-80
2023/01/19 06:20:48;;;;;;;14.10;4.72;;;;;;;-3.04;100.00;100114.31;5039153;28;20082;-77
2023/01/19 06:23:14;;;;;;;10.40;5.40;;;;;;;-3.05;100.00;100120.53;5039430;28;20390;-78
2023/01/19 06:25:39;;;;;;;9.35;4.30;;;;;;;-3.08;100.00;100123.38;5039320;28;20020;-78
2023/01/19 06:28:05;;;;;;;11.55;5.85;;;;;;;-2.96;100.00;100127.81;5039499;28;20484;-78
2023/01/19 06:30:31;;;;;;;6.85;4.25;;;;;;;-2.87;100.00;100130.63;5039373;28;20032;-77
2023/01/19 06:32:56;;;;;;;8.15;5.03;;;;;;;-2.82;100.00;100127.69;5039310;28;20486;-77
2023/01/19 06:35:22;;;;;;;6.55;3.88;;;;;;;-2.78;100.00;100131.81;5055810;28;20029;-77
2023/01/19 06:37:48;;;;;;;9.90;6.03;;;;;;;-2.67;100.00;100145.06;5056118;28;20036;-78
2023/01/19 06:40:14;;;;;;;8.77;5.15;;;;;;;-2.54;100.00;100138.91;5039287;28;20079;-77
2023/01/19 06:42:39;;;;;;;7.95;3.97;;;;;;;-2.39;100.00;100143.13;5055567;28;20467;-78
2023/01/19 06:45:06;;;;;;;9.18;5.07;;;;;;;-2.32;100.00;100141.75;5039209;28;20037;-78
2023/01/19 06:47:33;;;;;;;11.23;4.20;;;;;;;-2.30;100.00;100139.84;5038997;28;20501;-77
2023/01/19 06:49:59;;;;;;;10.73;6.07;;;;;;;-2.32;100.00;100141.75;5055907;28;20417;-77
2023/01/19 06:52:24;;;;;;;3.95;3.55;;;;;;;-2.24;100.00;100152.56;5055547;28;20028;-77
2023/01/19 06:54:50;;;;;;;4.45;3.42;;;;;;;-2.27;100.00;100158.06;5073163;28;20033;-78
2023/01/19 06:57:16;;;;;;;7.97;3.28;;;;;;;-2.33;100.00;100149.72;5071751;28;20036;-78
2023/01/19 06:59:41;;;;;;;7.82;4.35;;;;;;;-2.36;100.00;100153.44;5055589;28;20040;-77
2023/01/19 07:02:10;;;;;;;8.98;5.30;;;;;;;-2.39;100.00;100151.00;5038852;28;20039;-77
2023/01/19 07:04:36;;;;;;;9.75;3.67;;;;;;;-2.43;100.00;100162.72;5038960;28;20035;-77
2023/01/19 07:07:02;;;;;;;15.52;4.78;;;;;;;-2.41;100.00;100160.81;5038935;28;20025;-78
2023/01/19 07:09:27;;;;;;;7.05;4.82;;;;;;;-2.42;100.00;100169.66;5038836;28;20036;-77
2023/01/19 07:11:54;;;;;;;11.98;4.55;;;;;;;-2.46;100.00;100173.44;5055094;28;20056;-78
2023/01/19 07:14:22;;;;;;;8.23;4.97;;;;;;;-2.49;100.00;100168.41;5038871;28;20036;-78
2023/01/19 07:16:47;;;;;;;5.13;4.15;;;;;;;-2.38;100.00;100175.53;5038986;28;20032;-77
2023/01/19 07:19:14;;;;;;;4.20;3.63;;;;;;;-2.36;100.00;100179.75;5038735;28;20538;-79
2023/01/19 07:21:39;;;;;;;3.92;3.50;;;;;;;-2.40;100.00;100175.66;5038855;28;20029;-78
2023/01/19 07:24:05;;;;;;;6.18;4.00;;;;;;;-2.50;100.00;100174.63;5038787;28;20089;-77
2023/01/19 07:26:31;;;;;;;6.65;4.13;;;;;;;-2.57;100.00;100174.19;5038363;28;20035;-77
2023/01/19 07:28:57;;;;;;;4.50;3.38;;;;;;;-2.66;100.00;100177.47;5038316;28;20051;-78
2023/01/19 07:31:22;;;;;;;9.05;4.38;;;;;;;-2.70;100.00;100176.84;5055834;28;20029;-77
2023/01/19 07:33:48;;;;;;;4.88;3.30;;;;;;;-2.72;100.00;100175.28;5042548;28;20489;-77
2023/01/19 07:36:14;;;;;;;6.53;2.92;;;;;;;-2.79;100.00;100181.88;5059152;28;20142;-77
2023/01/19 07:38:40;;;;;;;2.58;1.80;;;;;;;-2.89;100.00;100181.66;5058898;28;20064;-76
2023/01/19 07:41:08;;;;;;;2.92;2.17;;;;;;;-2.93;100.00;100190.72;5042445;28;20028;-77
2023/01/19 07:43:34;;;;;;;8.52;3.65;;;;;;;-3.09;100.00;100185.66;5058744;28;20146;-76
2023/01/19 07:46:01;;;;;;;6.10;3.17;;;;;;;-3.23;100.00;100194.44;5041899;28;20116;-76
2023/01/19 07:48:27;;;;;;;12.55;4.22;;;;;;;-3.33;100.00;100203.91;5058380;28;20032;-76
2023/01/19 07:50:58;;;;;;;4.63;3.75;;;;;;;-3.31;100.00;100209.88;5058295;28;20478;-80
2023/01/19 07:53:24;;;;;;;4.32;3.33;;;;;;;-3.29;100.00;100213.25;5058140;28;20489;-78
2023/01/19 07:55:55;;;;;;;4.35;3.28;;;;;;;-3.33;100.00;100220.50;5042193;28;20024;-77
2023/01/19 07:58:22;;;;;;;4.75;2.35;;;;;;;-3.47;100.00;100222.34;5042067;28;20474;-78
2023/01/19 08:00:48;;;;;;;7.45;4.35;;;;;;;-3.69;100.00;100225.50;5058484;28;20040;-77
2023/01/19 08:03:13;;;;;;;4.47;2.65;;;;;;;-3.79;100.00;100220.00;5042004;28;20040;-76
2023/01/19 08:05:39;;;;;;;6.38;2.45;;;;;;;-3.80;100.00;100216.53;5057861;28;20459;-76
2023/01/19 08:08:05;;;;;;;7.35;2.92;;;;;;;-3.66;100.00;100241.91;5041822;28;20042;-76
2023/01/19 08:10:31;;;;;;;6.95;3.53;;;;;;;-3.60;100.00;100244.16;5041379;28;20455;-76
2023/01/19 08:12:57;;;;;;;3.63;3.33;;;;;;;-3.60;100.00;100235.41;5041705;28;20036;-78
2023/01/19 08:15:24;;;;;;;3.00;2.30;;;;;;;-3.52;100.00;100246.28;5041038;28;20041;-78
2023/01/19 08:18:08;;;;;;;6.43;3.13;;;;;;;-3.55;100.00;100254.38;5057889;28;20467;-79
2023/01/19 08:20:33;;;;;;;1.92;1.42;;;;;;;-3.61;100.00;100249.50;5042120;28;20042;-79
2023/01/19 08:22:59;;;;;;;5.28;2.90;;;;;;;-3.65;100.00;100262.00;5041169;28;20115;-79
2023/01/19 08:25:33;;;;;;;3.75;2.50;;;;;;;-3.79;100.00;100252.34;5074515;28;20029;-79
2023/01/19 08:27:59;;;;;;;;;;;;;;;-3.91;100.00;100262.81;5057953;28;20028;-76
2023/01/19 08:30:25;;;;;;;3.40;3.03;;;;;;;-4.10;100.00;100253.44;5041058;28;19914;-76
2023/01/19 08:32:53;;;;;;;1.83;1.73;;;;;;;-4.09;100.00;100267.41;5041151;28;20060;-77
2023/01/19 08:35:19;;;;;;;6.32;3.08;;;;;;;-3.95;100.00;100256.88;5057973;28;20111;-77
2023/01/19 08:37:45;;;;;;;4.50;3.08;;;;;;;-3.78;100.00;100263.72;5074272;28;20107;-78
2023/01/19 08:40:11;;;;;;;4.88;3.70;;;;;;;-3.69;100.00;100267.56;5040964;28;20397;-80
2023/01/19 08:42:37;;;;;;;3.10;2.45;;;;;;;-3.78;100.00;100258.47;5040814;28;20040;-79
2023/01/19 08:45:03;;;;;;;5.32;2.95;;;;;;;-3.82;100.00;100270.94;5057435;28;20043;-78
2023/01/19 08:47:28;;;;;;;5.50;2.92;;;;;;;-3.87;100.00;100278.25;5040872;28;20450;-77
2023/01/19 08:49:54;;;;;;;4.07;3.08;;;;;;;-3.85;100.00;100286.06;5041073;28;20067;-79
2023/01/19 08:52:20;;;;;;;3.13;2.60;;;;;;;-3.90;100.00;100288.13;5041127;28;20036;-78
2023/01/19 08:54:45;;;;;;;2.72;1.92;;;;;;;-3.93;100.00;100281.28;5040962;28;20355;-78
2023/01/19 08:57:11;;;;;;;5.95;3.10;;;;;;;-4.01;100.00;100271.25;5040920;28;20040;-77
2023/01/19 08:59:37;;;;;;;1.75;1.10;;;;;;;-3.92;100.00;100290.81;5040927;28;20028;-77
2023/01/19 09:02:03;;;;;;;2.17;1.83;;;;;;;-3.93;100.00;100299.66;5040987;28;20063;-78
2023/01/19 09:04:28;;;;;;;5.55;2.05;;;;;;;-4.01;100.00;100299.28;5056725;28;20157;-77
2023/01/19 09:06:54;;;;;;;5.78;3.05;;;;;;;-3.93;100.00;100304.91;5040729;28;20036;-78
2023/01/19 09:09:20;;;;;;;2.08;1.88;;;;;;;-3.88;100.00;100305.47;5040970;28;20044;-79
2023/01/19 09:11:45;;;;;;;7.55;3.42;;;;;;;-3.91;100.00;100312.72;5073677;28;20035;-78
2023/01/19 09:14:11;;;;;;;2.95;2.10;;;;;;;-4.05;100.00;100300.41;5040692;28;20036;-77
2023/01/19 09:16:37;;;;;;;3.20;2.58;;;;;;;-3.92;100.00;100322.34;5040611;28;20028;-77
2023/01/19 09:19:03;;;;;;;6.10;3.55;;;;;;;-3.91;100.00;100313.53;5040331;28;20474;-78
2023/01/19 09:21:28;;;;;;;6.43;4.10;;;;;;;-3.73;100.00;100324.72;5040403;28;20035;-80
2023/01/19 09:23:57;;;;;;;2.33;2.08;;;;;;;-3.57;100.00;100349.09;5040219;28;20028;-79
2023/01/19 09:26:23;;;;;;;10.70;3.80;;;;;;;-3.54;100.00;100348.88;5073249;28;20039;-79
2023/01/19 09:28:48;;;;;;;6.32;3.20;;;;;;;-3.64;100.00;100339.88;5073174;28;20028;-81
2023/01/19 09:31:15;;;;;;;3.88;2.90;;;;;;;-3.38;100.00;100347.94;5040376;28;20028;-81
2023/01/19 09:33:40;;;;;;;5.03;2.85;;;;;;;-2.55;100.00;100350.44;5073653;28;20032;-81
2023/01/19 09:36:06;;;;;;;6.60;3.80;;;;;;;-1.58;100.00;100361.34;5040349;28;20382;-81
2023/01/19 09:38:32;;;;;;;4.32;3.10;;;;;;;-0.59;100.00;100373.56;5073344;28;20032;-82
2023/01/19 09:40:59;;;;;;;9.02;3.78;;;;;;;-0.06;100.00;100375.78;5056926;28;20045;-80
2023/01/19 09:43:37;;;;;;;12.30;4.65;;;;;;;-0.05;100.00;100375.69;5056566;28;20390;-81
2023/01/19 09:46:18;;;;;;;9.63;5.20;;;;;;;0.13;100.00;100388.44;5056452;28;20071;-82
2023/01/19 09:48:50;;;;;;;12.25;5.43;;;;;;;-0.01;100.00;100373.63;5072884;28;20548;-81
2023/01/19 09:51:28;;;;;;;12.68;6.15;;;;;;;0.04;100.00;100387.34;5056576;28;20078;-81
2023/01/19 09:54:19;;;;;;;12.45;7.68;;;;;;;-0.15;100.00;100390.53;5055832;28;20032;-81
2023/01/19 09:56:47;;;;;;;17.73;8.50;;;;;;;-0.03;100.00;100383.47;5056318;28;20379;-79
2023/01/19 09:59:33;;;;;;;15.50;9.00;;;;;;;0.77;100.00;100394.00;5056506;28;20044;-79
2023/01/19 10:02:20;;;;;;;12.10;6.85;;;;;;;1.32;100.00;100396.66;5054990;28;20040;-80
2023/01/19 10:05:01;;;;;;;14.68;8.10;;;;;;;1.35;100.00;100392.91;5073844;28;20024;-80
2023/01/19 10:07:52;;;;;;;15.75;7.20;;;;;;;1.72;100.00;100396.88;5074898;28;20542;-80
2023/01/19 10:10:24;;;;;;;14.20;7.35;;;;;;;1.83;100.00;100406.56;5073023;28;20029;-80
2023/01/19 10:13:08;;;;;;;12.80;7.05;;;;;;;1.95;100.00;100413.47;5039924;28;20111;-80
2023/01/19 10:16:08;;;;;;;26.70;8.77;;;;;;;2.72;100.00;100414.88;5073266;28;20040;-80
2023/01/19 10:18:47;;;;;;;13.77;8.23;;;;;;;4.03;99.04;100411.19;5072638;28;20033;-80
2023/01/19 10:21:39;;;;;;;21.27;9.52;;;;;;;5.29;91.66;100430.19;5058588;28;20047;-80
2023/01/19 10:24:17;;;;;;;19.17;8.77;;;;;;;6.15;87.43;100428.84;5080141;28;20020;-80
2023/01/19 10:26:46;;;;;;;18.63;8.98;;;;;;;6.78;83.82;100430.44;5044195;28;20028;-79
2023/01/19 10:29:26;;;;;;;9.18;5.20;;;;;;;7.29;82.81;100439.31;5076183;28;20024;-79
2023/01/19 10:32:00;;;;;;;8.23;4.57;;;;;;;7.83;81.48;100431.75;5060513;28;20086;-78
2023/01/19 10:34:26;;;;;;;;;;;;;;;8.20;82.06;100451.00;5042658;28;20067;-78
2023/01/19 10:37:01;;;;;;;0.80;0.80;;;;;;;8.49;82.21;100451.31;5074190;28;19963;-79
2023/01/19 10:39:27;;;;;;;0.70;0.70;;;;;;;8.64;85.96;100448.78;5072586;28;20028;-79
2023/01/19 10:41:53;;;;;;;0.70;0.70;;;;;;;8.94;85.18;100444.50;5072525;28;20039;-79
2023/01/19 10:44:24;;;;;;;0.70;0.70;;;;;;;9.20;83.43;100460.34;5055431;28;20474;-78
2023/01/19 10:46:50;;;;;;;0.70;0.70;;;;;;;9.30;84.08;100460.13;5072482;28;20050;-77
2023/01/19 10:49:30;;;;;;;0.70;0.70;;;;;;;9.27;85.06;100459.66;5072474;28;20041;-78
2023/01/19 10:51:57;;;;;;;0.60;0.60;;;;;;;8.84;85.10;100481.44;5055824;28;20467;-77
2023/01/19 10:54:23;;;;;;;0.60;0.60;;;;;;;8.53;85.90;100482.16;5055811;28;20040;-77
2023/01/19 10:56:57;;;;;;;0.70;0.70;;;;;;;8.91;85.66;100486.94;5072172;28;20033;-77
2023/01/19 10:59:50;;;;;;;0.70;0.70;;;;;;;8.90;84.39;100487.94;5055686;28;20031;-77
2023/01/19 11:02:30;;;;;;;0.60;0.60;;;;;;;8.27;88.06;100502.88;5071987;28;20479;-76
2023/01/19 11:05:22;;;;;;;0.60;0.60;;;;;;;7.70;94.25;100504.50;5055241;28;20352;-76
2023/01/19 11:07:48;;;;;;;0.70;0.70;;;;;;;8.24;92.90;100506.75;5043207;28;20060;-76
2023/01/19 11:10:16;;;;;;;0.70;0.70;;;;;;;8.97;87.46;100511.22;5077345;28;20427;-77
2023/01/19 11:12:43;;;;;;;0.70;0.70;;;;;;;9.45;86.15;100508.56;5076315;28;20060;-76
2023/01/19 11:15:28;;;;;;;0.70;0.70;;;;;;;9.81;86.20;100513.38;5059569;28;20071;-77
2023/01/19 11:17:54;;;;;;;0.60;0.60;;;;;;;9.40;87.86;100524.34;5059664;28;20051;-77
2023/01/19 11:20:34;;;;;;;0.60;0.60;;;;;;;9.25;87.48;100521.53;5059534;28;20028;-77
2023/01/19 11:23:28;;;;;;;0.60;0.60;;;;;;;8.40;91.28;100527.38;5059553;28;20132;-76
2023/01/19 11:25:57;;;;;;;0.85;0.85;;;;;;;7.43;96.59;100524.28;5042607;28;20036;-76
2023/01/19 11:28:47;;;;;;;1.10;1.08;;;;;;;6.75;99.53;100529.63;5059439;28;20040;-76